Time;durP1;ratioP1;P1;durP2;ratioP2;P2;SDS_P1;SDS_P2;PMS_P1;PMS_P2;Temp;Humidity;BMP_temperature;BMP_pressure;BME280_temperature;BME280_humidity;BME280_pressure;Samples;Min_cycle;Max_cycle;Signal;HPM_P1;HPM_P2
2023/05/06 00:00:50;;;;;;;;;;;;;;;4.05;70.66;102343.40;107698;1259;124931;-82
2023/05/06 00:03:18;;;;;;;;;;;;;;;4.05;70.64;102340.27;107532;1257;73682;-82
2023/05/06 00:05:46;;;;;;;;;;;;;;;4.07;70.76;102338.45;107444;1256;125440;-82
2023/05/06 00:08:13;;;;;;;;;;;;;;;4.06;70.74;102337.23;107458;1258;60356;-82
2023/05/06 00:10:40;;;;;;;;;;;;;;;4.05;70.76;102332.78;107388;1256;125148;-82
2023/05/06 00:13:07;;;;;;;;;;;;;;;4.06;70.80;102331.14;107410;1257;67625;-82
2023/05/06 00:15:34;;;;;;;;;;;;;;;4.07;70.79;102337.92;107404;1257;248255;-83
2023/05/06 00:18:01;;;;;;;;;;;;;;;4.07;70.87;102337.81;107344;1262;125609;-82
2023/05/06 00:20:28;;;;;;;;;;;;;;;4.06;70.67;102342.23;107754;1256;60260;-82
2023/05/06 00:22:55;;;;;;;;;;;;;;;4.04;70.66;102344.84;107350;1257;125789;-82
2023/05/06 00:25:22;;;;;;;;;;;;;;;4.02;70.57;102347.30;107471;1256;67670;-82
2023/05/06 00:27:49;;;;;;;;;;;;;;;3.99;70.71;102346.59;107914;1256;71301;-82
2023/05/06 00:30:16;;;;;;;;;;;;;;;3.98;70.56;102346.63;107569;1262;125000;-82
2023/05/06 00:32:43;;;;;;;;;;;;;;;3.96;70.53;102349.30;107596;1258;60469;-83
2023/05/06 00:35:12;;;;;;;;;;;;;;;3.96;70.60;102348.36;107633;1256;125019;-82
2023/05/06 00:37:39;;;;;;;;;;;;;;;3.95;70.56;102345.71;108005;1256;67075;-81
2023/05/06 00:40:07;;;;;;;;;;;;;;;3.92;70.59;102348.11;108093;1256;72984;-82
2023/05/06 00:42:34;;;;;;;;;;;;;;;3.90;70.71;102353.52;107887;1256;125416;-81
2023/05/06 00:45:01;;;;;;;;;;;;;;;3.88;70.61;102354.05;107811;1256;61852;-81
2023/05/06 00:47:27;;;;;;;;;;;;;;;3.86;70.56;102355.46;107466;1257;125473;-81
2023/05/06 00:49:54;;;;;;;;;;;;;;;3.84;70.46;102350.23;107290;1256;67198;-81
2023/05/06 00:52:21;;;;;;;;;;;;;;;3.80;70.63;102350.85;107640;1256;70871;-82
2023/05/06 00:54:49;;;;;;;;;;;;;;;3.78;70.59;102349.64;107870;1258;125251;-82
2023/05/06 00:57:16;;;;;;;;;;;;;;;3.75;70.45;102352.29;108035;1257;62066;-81
2023/05/06 00:59:43;;;;;;;;;;;;;;;3.71;70.44;102349.59;107764;1257;125951;-82
2023/05/06 01:02:10;;;;;;;;;;;;;;;3.68;70.45;102351.60;107876;1256;65486;-83
2023/05/06 01:04:37;;;;;;;;;;;;;;;3.65;70.48;102355.20;107929;1256;124998;-82
2023/05/06 01:07:08;;;;;;;;;;;;;;;3.61;70.40;102354.54;107874;1256;61905;-82
2023/05/06 01:09:36;;;;;;;;;;;;;;;3.58;70.36;102358.83;107978;1256;60496;-82
2023/05/06 01:12:02;;;;;;;;;;;;;;;3.56;70.55;102358.45;107688;1257;125291;-82
2023/05/06 01:15:05;;;;;;;;;;;;;;;3.54;70.34;102361.92;107609;1259;65815;-83
2023/05/06 01:17:39;;;;;;;;;;;;;;;3.50;70.07;102367.91;107246;1265;125776;-83
2023/05/06 01:20:06;;;;;;;;;;;;;;;3.48;69.93;102377.63;107493;1265;60191;-82
2023/05/06 01:22:35;;;;;;;;;;;;;;;3.44;69.94;102377.67;107143;1264;125886;-82
2023/05/06 01:25:02;;;;;;;;;;;;;;;3.40;70.09;102380.83;107035;1266;75286;-82
2023/05/06 01:27:29;;;;;;;;;;;;;;;3.37;69.83;102381.30;107281;1265;65761;-82
2023/05/06 01:29:56;;;;;;;;;;;;;;;3.34;70.03;102383.84;107364;1266;125512;-82
2023/05/06 01:32:58;;;;;;;;;;;;;;;3.32;69.97;102382.61;107214;1268;63374;-82
2023/05/06 01:35:47;;;;;;;;;;;;;;;3.31;69.82;102383.26;106345;1271;125834;-82
2023/05/06 01:38:14;;;;;;;;;;;;;;;3.30;69.63;102381.77;106405;1271;76036;-82
2023/05/06 01:40:42;;;;;;;;;;;;;;;3.30;69.46;102379.14;106555;1271;124823;-83
2023/05/06 01:43:09;;;;;;;;;;;;;;;3.29;69.32;102375.78;106276;1274;71749;-83
2023/05/06 01:45:36;;;;;;;;;;;;;;;3.30;68.91;102375.85;106099;1271;63151;-83
2023/05/06 01:48:03;;;;;;;;;;;;;;;3.32;68.79;102373.60;106143;1271;124387;-84
2023/05/06 01:50:30;;;;;;;;;;;;;;;3.33;68.63;102376.08;106378;1271;74247;-82
2023/05/06 01:52:58;;;;;;;;;;;;;;;3.33;68.57;102380.08;106361;1271;125408;-82
2023/05/06 01:55:25;;;;;;;;;;;;;;;3.35;68.07;102380.36;107561;1265;72475;-83
2023/05/06 01:57:52;;;;;;;;;;;;;;;3.34;67.93;102379.83;107594;1270;60386;-83
2023/05/06 02:00:19;;;;;;;;;;;;;;;3.31;67.86;102378.70;107743;1265;124793;-83
2023/05/06 02:02:46;;;;;;;;;;;;;;;3.29;67.68;102381.84;107503;1265;74248;-83
2023/05/06 02:05:13;;;;;;;;;;;;;;;3.26;67.27;102378.51;107300;1265;124792;-83
2023/05/06 02:07:40;;;;;;;;;;;;;;;3.24;67.26;102372.77;107418;1264;72137;-83
2023/05/06 02:10:07;;;;;;;;;;;;;;;3.22;67.00;102373.66;107617;1257;61871;-83
2023/05/06 02:12:34;;;;;;;;;;;;;;;3.21;67.00;102371.10;107628;1257;124436;-83
2023/05/06 02:15:01;;;;;;;;;;;;;;;3.18;66.94;102364.80;107781;1257;75551;-83
2023/05/06 02:17:28;;;;;;;;;;;;;;;3.17;66.79;102366.95;107417;1258;125236;-83
2023/05/06 02:19:56;;;;;;;;;;;;;;;3.14;66.66;102368.46;107708;1256;71478;-83
2023/05/06 02:22:25;;;;;;;;;;;;;;;3.15;66.40;102369.59;107429;1256;62953;-82
2023/05/06 02:24:53;;;;;;;;;;;;;;;3.16;66.46;102375.46;107713;1256;125846;-82
2023/05/06 02:27:20;;;;;;;;;;;;;;;3.19;66.17;102376.33;107753;1257;75843;-82
2023/05/06 02:29:46;;;;;;;;;;;;;;;3.22;66.20;102373.13;107594;1257;124996;-83
2023/05/06 02:32:13;;;;;;;;;;;;;;;3.24;66.03;102372.05;107813;1256;72693;-83
2023/05/06 02:34:40;;;;;;;;;;;;;;;3.26;65.85;102372.06;107654;1260;125018;-83
2023/05/06 02:37:07;;;;;;;;;;;;;;;3.29;65.98;102371.13;107734;1257;61278;-83
2023/05/06 02:39:34;;;;;;;;;;;;;;;3.34;65.60;102371.83;107788;1256;73352;-83
2023/05/06 02:42:02;;;;;;;;;;;;;;;3.39;65.54;102373.60;107592;1256;124443;-83
2023/05/06 02:44:36;;;;;;;;;;;;;;;3.43;65.40;102376.67;107511;1256;71073;-83
2023/05/06 02:47:03;;;;;;;;;;;;;;;3.46;65.26;102378.16;107510;1257;124641;-83
2023/05/06 02:49:32;;;;;;;;;;;;;;;3.49;65.15;102376.21;107740;1256;60247;-83
2023/05/06 02:51:59;;;;;;;;;;;;;;;3.53;64.85;102381.64;107922;1257;76170;-83
2023/05/06 02:54:26;;;;;;;;;;;;;;;3.55;64.69;102379.38;108002;1257;124724;-83
2023/05/06 02:56:53;;;;;;;;;;;;;;;3.57;64.55;102382.83;107881;1263;72487;-83
2023/05/06 02:59:20;;;;;;;;;;;;;;;3.57;64.43;102384.12;107330;1257;124281;-84
2023/05/06 03:01:47;;;;;;;;;;;;;;;3.58;64.22;102384.52;107509;1262;62232;-84
2023/05/06 03:04:17;;;;;;;;;;;;;;;3.59;64.07;102383.16;107791;1261;75821;-84
2023/05/06 03:06:44;;;;;;;;;;;;;;;3.60;63.92;102389.20;107998;1263;124696;-85
2023/05/06 03:09:11;;;;;;;;;;;;;;;3.61;63.89;102388.75;107842;1256;73274;-83
2023/05/06 03:11:38;;;;;;;;;;;;;;;3.63;63.71;102386.33;108025;1260;125175;-84
2023/05/06 03:14:06;;;;;;;;;;;;;;;3.65;63.70;102384.55;107872;1257;61814;-83
2023/05/06 03:16:33;;;;;;;;;;;;;;;3.66;63.39;102383.61;108045;1256;74255;-83
2023/05/06 03:19:02;;;;;;;;;;;;;;;3.68;63.14;102384.30;107822;1256;65770;-82
2023/05/06 03:21:30;;;;;;;;;;;;;;;3.69;62.84;102386.63;107199;1262;70093;-81
2023/05/06 03:23:57;;;;;;;;;;;;;;;3.71;62.81;102385.55;107312;1258;125002;-81
2023/05/06 03:26:24;;;;;;;;;;;;;;;3.77;63.02;102379.77;107555;1257;63082;-83
2023/05/06 03:28:51;;;;;;;;;;;;;;;3.86;62.72;102377.16;107715;1262;125089;-82
2023/05/06 03:31:18;;;;;;;;;;;;;;;4.01;62.80;102378.11;107697;1256;67101;-82
2023/05/06 03:33:45;;;;;;;;;;;;;;;4.23;62.98;102378.82;107788;1256;71399;-81
2023/05/06 03:36:12;;;;;;;;;;;;;;;4.71;63.25;102371.77;107637;1261;124290;-82
2023/05/06 03:38:40;;;;;;;;;;;;;;;5.04;62.18;102366.09;107528;1256;61439;-82
2023/05/06 03:41:07;;;;;;;;;;;;;;;5.16;61.80;102367.27;107626;1257;124868;-81
2023/05/06 03:43:34;;;;;;;;;;;;;;;5.50;61.80;102367.30;107752;1256;67544;-82
2023/05/06 03:46:01;;;;;;;;;;;;;;;5.94;61.21;102363.47;107795;1256;73313;-81
2023/05/06 03:48:30;;;;;;;;;;;;;;;6.02;60.37;102367.35;107585;1257;124585;-81
2023/05/06 03:50:57;;;;;;;;;;;;;;;6.02;59.96;102370.86;107576;1256;60364;-82
2023/05/06 03:53:24;;;;;;;;;;;;;;;6.05;59.66;102372.19;107751;1256;125112;-82
2023/05/06 03:55:51;;;;;;;;;;;;;;;6.14;59.49;102373.17;107784;1256;66533;-82
2023/05/06 03:58:18;;;;;;;;;;;;;;;6.21;59.20;102370.73;107945;1257;70928;-82
2023/05/06 04:00:45;;;;;;;;;;;;;;;6.39;59.12;102374.38;107743;1256;124540;-81
2023/05/06 04:03:12;;;;;;;;;;;;;;;6.51;58.80;102377.05;108052;1259;60349;-82
2023/05/06 04:05:39;;;;;;;;;;;;;;;6.49;58.38;102369.95;107881;1263;124274;-81
2023/05/06 04:08:06;;;;;;;;;;;;;;;6.59;58.41;102370.67;107738;1264;67152;-82
2023/05/06 04:10:43;;;;;;;;;;;;;;;6.74;58.15;102371.48;107686;1257;72701;-82
2023/05/06 04:13:10;;;;;;;;;;;;;;;6.82;57.80;102366.42;107224;1257;62911;-82
2023/05/06 04:15:37;;;;;;;;;;;;;;;6.82;57.30;102367.80;108116;1260;61983;-82
2023/05/06 04:18:06;;;;;;;;;;;;;;;6.73;57.11;102365.83;107461;1257;124777;-82
2023/05/06 04:20:33;;;;;;;;;;;;;;;6.76;57.13;102365.70;108861;1258;67359;-82
2023/05/06 04:23:00;;;;;;;;;;;;;;;6.79;57.05;102366.26;108731;1257;124295;-82
2023/05/06 04:25:27;;;;;;;;;;;;;;;6.89;56.83;102363.75;108898;1256;60164;-80
2023/05/06 04:27:54;;;;;;;;;;;;;;;6.95;56.61;102363.26;108886;1257;60356;-81
2023/05/06 04:30:21;;;;;;;;;;;;;;;6.86;56.14;102368.63;108775;1258;124060;-81
2023/05/06 04:32:48;;;;;;;;;;;;;;;6.79;56.16;102369.21;108792;1257;67333;-82
2023/05/06 04:35:15;;;;;;;;;;;;;;;6.78;55.96;102372.09;108786;1257;124353;-82
2023/05/06 04:37:43;;;;;;;;;;;;;;;6.76;56.10;102367.63;108725;1263;60141;-82
2023/05/06 04:40:11;;;;;;;;;;;;;;;6.77;55.97;102370.83;108741;1257;60238;-83
2023/05/06 04:42:38;;;;;;;;;;;;;;;6.77;55.75;102374.85;108499;1257;124541;-83
2023/05/06 04:45:06;;;;;;;;;;;;;;;6.78;55.63;102368.23;107684;1257;67607;-83
2023/05/06 04:47:36;;;;;;;;;;;;;;;6.80;55.51;102375.39;107632;1263;124387;-82
2023/05/06 04:50:03;;;;;;;;;;;;;;;6.75;55.39;102377.32;107958;1261;60305;-83
2023/05/06 04:52:31;;;;;;;;;;;;;;;6.77;55.39;102373.09;107605;1262;60361;-82
2023/05/06 04:54:57;;;;;;;;;;;;;;;6.87;55.41;102371.09;107527;1262;123899;-81
2023/05/06 04:57:31;;;;;;;;;;;;;;;6.90;55.19;102370.95;107679;1257;67220;-84
2023/05/06 04:59:57;;;;;;;;;;;;;;;6.88;55.05;102368.93;107401;1258;124264;-79
2023/05/06 05:02:24;;;;;;;;;;;;;;;6.89;55.02;102366.71;107714;1260;60704;-78
2023/05/06 05:04:51;;;;;;;;;;;;;;;6.91;54.92;102367.58;107407;1263;125284;-81
2023/05/06 05:07:18;;;;;;;;;;;;;;;6.93;54.78;102367.52;107460;1257;73431;-83
2023/05/06 05:09:56;;;;;;;;;;;;;;;6.97;54.87;102365.34;107274;1261;65805;-86
2023/05/06 05:12:27;;;;;;;;;;;;;;;6.97;54.65;102361.32;107399;1257;124774;-90
2023/05/06 05:14:54;;;;;;;;;;;;;;;6.96;54.56;102360.19;107318;1262;61275;-85
2023/05/06 05:17:23;;;;;;;;;;;;;;;6.95;54.53;102358.54;107225;1262;124431;-84
2023/05/06 05:19:51;;;;;;;;;;;;;;;7.01;54.61;102359.27;107639;1257;75779;-84
2023/05/06 05:22:18;;;;;;;;;;;;;;;7.07;54.43;102357.92;107681;1257;65917;-80
2023/05/06 05:24:45;;;;;;;;;;;;;;;7.10;54.50;102350.63;107544;1263;124486;-80
2023/05/06 05:27:12;;;;;;;;;;;;;;;7.14;54.31;102346.50;107718;1258;60309;-80
2023/05/06 05:29:39;;;;;;;;;;;;;;;7.20;54.38;102344.30;107849;1263;124102;-80
2023/05/06 05:32:06;;;;;;;;;;;;;;;7.34;54.45;102342.77;107789;1263;75171;-80
2023/05/06 05:34:33;;;;;;;;;;;;;;;7.55;54.54;102339.33;108020;1258;67465;-81
2023/05/06 05:37:00;;;;;;;;;;;;;;;7.78;54.39;102336.73;107848;1256;124022;-80
2023/05/06 05:39:27;;;;;;;;;;;;;;;7.98;54.04;102333.56;107735;1257;60511;-80
2023/05/06 05:41:54;;;;;;;;;;;;;;;8.01;53.63;102333.26;107833;1260;124725;-81
2023/05/06 05:44:21;;;;;;;;;;;;;;;8.11;53.60;102330.52;107804;1257;75164;-81
2023/05/06 05:46:48;;;;;;;;;;;;;;;8.22;53.46;102328.20;107838;1260;124378;-81
2023/05/06 05:49:15;;;;;;;;;;;;;;;8.34;53.33;102328.25;107985;1263;72036;-81
2023/05/06 05:51:42;;;;;;;;;;;;;;;8.40;52.77;102327.70;108052;1262;60535;-84
2023/05/06 05:54:10;;;;;;;;;;;;;;;8.39;52.43;102333.27;107797;1257;124634;-84
2023/05/06 05:56:37;;;;;;;;;;;;;;;8.43;52.26;102333.70;107786;1257;75286;-84
2023/05/06 05:59:04;;;;;;;;;;;;;;;8.48;52.18;102332.94;107664;1257;125153;-83
2023/05/06 06:01:31;;;;;;;;;;;;;;;8.62;52.02;102326.04;107581;1263;72639;-83
2023/05/06 06:03:58;;;;;;;;;;;;;;;8.77;51.84;102330.41;108763;1257;59871;-83
2023/05/06 06:06:25;;;;;;;;;;;;;;;8.91;51.54;102332.77;108777;1262;124629;-83
2023/05/06 06:08:52;;;;;;;;;;;;;;;8.96;51.19;102332.20;108757;1256;75628;-82
2023/05/06 06:11:20;;;;;;;;;;;;;;;9.06;51.05;102331.39;108866;1257;124915;-83
2023/05/06 06:13:47;;;;;;;;;;;;;;;9.17;50.72;102331.27;108958;1258;73251;-85
2023/05/06 06:16:15;;;;;;;;;;;;;;;9.26;50.54;102331.81;108904;1257;60698;-84
2023/05/06 06:22:27;;;;;;;;;;;;;;;9.59;49.79;102326.02;107240;1264;75754;-83
2023/05/06 06:25:01;;;;;;;;;;;;;;;9.76;49.89;102323.10;107002;1264;124149;-85
2023/05/06 06:27:28;;;;;;;;;;;;;;;9.96;49.38;102323.48;107549;1256;71425;-85
2023/05/06 06:30:05;;;;;;;;;;;;;;;9.96;49.00;102327.88;107320;1257;124870;-84
2023/05/06 06:32:34;;;;;;;;;;;;;;;10.07;48.73;102324.24;107718;1257;62051;-84
2023/05/06 06:35:31;;;;;;;;;;;;;;;10.19;48.56;102320.63;107731;1257;125145;-83
2023/05/06 06:38:13;;;;;;;;;;;;;;;10.25;48.03;102325.52;108258;1257;65793;-82
2023/05/06 06:40:42;;;;;;;;;;;;;;;10.29;47.79;102321.86;107758;1257;125174;-82
2023/05/06 06:43:10;;;;;;;;;;;;;;;10.46;47.81;102316.24;108054;1257;60850;-83
2023/05/06 06:45:37;;;;;;;;;;;;;;;10.66;47.64;102316.54;108048;1257;62223;-82
2023/05/06 06:48:04;;;;;;;;;;;;;;;10.79;47.37;102315.23;107874;1263;124746;-83
2023/05/06 06:50:31;;;;;;;;;;;;;;;10.75;46.93;102312.77;108290;1257;67050;-81
2023/05/06 06:53:00;;;;;;;;;;;;;;;10.75;46.95;102312.06;108126;1260;124559;-88
2023/05/06 06:55:27;;;;;;;;;;;;;;;10.88;46.84;102309.20;108124;1257;61750;-83
2023/05/06 06:57:55;;;;;;;;;;;;;;;11.08;46.95;102306.96;107899;1258;62126;-82
2023/05/06 07:00:21;;;;;;;;;;;;;;;11.28;46.81;102306.18;107998;1257;124547;-82
2023/05/06 07:02:48;;;;;;;;;;;;;;;11.37;46.68;102300.80;107944;1257;65919;-82
2023/05/06 07:05:16;;;;;;;;;;;;;;;11.51;46.68;102298.28;108655;1257;124718;-82
2023/05/06 07:07:43;;;;;;;;;;;;;;;11.66;46.43;102299.46;108895;1260;60614;-84
2023/05/06 07:10:11;;;;;;;;;;;;;;;11.65;46.25;102293.81;108898;1258;60248;-91
2023/05/06 07:12:38;;;;;;;;;;;;;;;11.63;46.13;102291.98;108625;1257;124574;-82
2023/05/06 07:15:05;;;;;;;;;;;;;;;11.65;46.06;102290.49;108955;1256;67498;-82
2023/05/06 07:17:32;;;;;;;;;;;;;;;11.57;45.78;102282.73;108848;1257;124420;-82
2023/05/06 07:20:00;;;;;;;;;;;;;;;11.47;45.53;102285.06;108270;1258;60387;-83
2023/05/06 07:22:28;;;;;;;;;;;;;;;11.53;45.48;102285.35;107670;1257;60819;-83
2023/05/06 07:24:56;;;;;;;;;;;;;;;11.66;45.44;102281.58;107494;1257;124769;-85
2023/05/06 07:27:29;;;;;;;;;;;;;;;11.79;45.16;102286.55;107361;1257;65873;-81
2023/05/06 07:29:56;;;;;;;;;;;;;;;11.72;44.87;102280.58;107204;1257;125720;-82
2023/05/06 07:32:24;;;;;;;;;;;;;;;11.69;44.62;102275.91;107414;1257;63067;-82
2023/05/06 07:34:52;;;;;;;;;;;;;;;11.69;44.68;102272.19;107315;1257;125392;-82
2023/05/06 07:37:26;;;;;;;;;;;;;;;11.60;43.87;102275.99;107910;1256;75106;-82
2023/05/06 07:39:57;;;;;;;;;;;;;;;11.40;43.78;102275.97;107539;1257;65028;-85
2023/05/06 07:42:25;;;;;;;;;;;;;;;11.44;43.94;102277.57;107864;1258;125242;-84
2023/05/06 07:44:52;;;;;;;;;;;;;;;11.50;43.71;102281.72;107809;1258;60348;-82
2023/05/06 07:47:30;;;;;;;;;;;;;;;11.47;43.40;102279.28;107312;1257;125272;-90
2023/05/06 07:49:57;;;;;;;;;;;;;;;11.66;43.54;102277.86;107486;1257;76518;-83
2023/05/06 07:52:24;;;;;;;;;;;;;;;11.79;43.37;102279.13;107532;1257;67062;-84
2023/05/06 07:54:57;;;;;;;;;;;;;;;11.84;43.00;102276.17;107543;1259;124909;-88
2023/05/06 07:57:24;;;;;;;;;;;;;;;11.80;42.61;102278.83;107660;1256;62632;-85
2023/05/06 07:59:51;;;;;;;;;;;;;;;11.77;42.34;102279.91;107596;1257;125024;-84
2023/05/06 08:02:18;;;;;;;;;;;;;;;11.87;42.33;102275.12;107665;1257;76550;-81
2023/05/06 08:04:45;;;;;;;;;;;;;;;11.96;42.05;102279.03;107704;1260;125044;-83
2023/05/06 08:07:18;;;;;;;;;;;;;;;11.87;41.73;102281.77;107502;1258;71349;-83
2023/05/06 08:09:45;;;;;;;;;;;;;;;11.89;41.78;102284.66;107602;1257;60451;-83
2023/05/06 08:12:12;;;;;;;;;;;;;;;11.91;41.58;102279.86;107427;1257;125124;-82
2023/05/06 08:14:39;;;;;;;;;;;;;;;11.98;41.51;102275.59;107604;1257;74180;-84
2023/05/06 08:17:06;;;;;;;;;;;;;;;12.08;41.56;102275.14;107677;1260;124817;-85
2023/05/06 08:19:33;;;;;;;;;;;;;;;12.05;41.62;102276.44;107912;1257;73159;-83
2023/05/06 08:22:00;;;;;;;;;;;;;;;12.06;41.58;102272.45;107766;1257;60437;-82
2023/05/06 08:24:27;;;;;;;;;;;;;;;12.09;41.45;102269.59;107278;1257;124557;-83
2023/05/06 08:26:55;;;;;;;;;;;;;;;12.16;41.71;102264.59;107374;1263;75269;-84
2023/05/06 08:29:22;;;;;;;;;;;;;;;12.22;42.02;102260.97;107412;1257;124777;-82
2023/05/06 08:31:49;;;;;;;;;;;;;;;12.31;41.96;102260.83;107789;1256;73229;-84
2023/05/06 08:34:19;;;;;;;;;;;;;;;12.35;41.93;102260.48;108385;1257;60767;-83
2023/05/06 08:36:47;;;;;;;;;;;;;;;12.41;42.03;102256.30;107787;1257;125029;-83
2023/05/06 08:39:16;;;;;;;;;;;;;;;12.46;41.81;102264.63;107860;1260;74186;-83
2023/05/06 08:41:46;;;;;;;;;;;;;;;12.31;41.57;102262.08;107962;1257;125033;-84
2023/05/06 08:44:17;;;;;;;;;;;;;;;12.20;41.75;102259.46;107445;1260;71107;-84
2023/05/06 08:46:47;;;;;;;;;;;;;;;12.13;41.65;102265.17;107576;1262;124757;-85
2023/05/06 08:49:15;;;;;;;;;;;;;;;11.96;41.64;102266.03;107617;1258;62227;-85
2023/05/06 08:51:42;;;;;;;;;;;;;;;11.93;41.92;102261.67;108048;1257;73899;-87
2023/05/06 08:54:10;;;;;;;;;;;;;;;12.00;41.99;102257.05;107658;1257;124639;-85
2023/05/06 08:56:37;;;;;;;;;;;;;;;11.98;42.02;102257.30;107644;1257;72636;-87
2023/05/06 08:59:07;;;;;;;;;;;;;;;11.97;42.03;102255.51;107643;1260;124881;-87
2023/05/06 09:01:35;;;;;;;;;;;;;;;11.86;41.93;102257.63;107529;1257;62997;-84
2023/05/06 09:04:02;;;;;;;;;;;;;;;11.78;42.05;102255.52;107553;1256;75250;-84
2023/05/06 09:06:31;;;;;;;;;;;;;;;11.77;42.09;102259.14;107622;1257;124891;-82
2023/05/06 09:08:58;;;;;;;;;;;;;;;11.79;42.31;102259.44;107426;1262;72398;-82
2023/05/06 09:11:28;;;;;;;;;;;;;;;11.83;42.40;102252.75;107514;1257;124701;-84
2023/05/06 09:14:09;;;;;;;;;;;;;;;11.87;42.30;102255.75;107581;1256;60216;-84
2023/05/06 09:16:37;;;;;;;;;;;;;;;11.88;42.60;102247.90;107696;1256;75850;-83
2023/05/06 09:19:04;;;;;;;;;;;;;;;12.02;42.68;102255.35;107358;1256;124405;-83
2023/05/06 09:21:43;;;;;;;;;;;;;;;12.15;42.66;102254.00;107599;1257;70757;-85
2023/05/06 09:24:16;;;;;;;;;;;;;;;12.17;42.50;102256.57;107570;1259;124637;-82
2023/05/06 09:26:50;;;;;;;;;;;;;;;12.05;42.31;102253.21;107916;1257;61945;-89
2023/05/06 09:29:17;;;;;;;;;;;;;;;12.05;42.57;102251.11;107993;1256;125363;-82
2023/05/06 09:31:44;;;;;;;;;;;;;;;12.13;42.87;102255.32;107882;1257;66068;-83
2023/05/06 09:34:11;;;;;;;;;;;;;;;12.17;42.76;102250.73;108230;1256;72578;-82
2023/05/06 09:36:38;;;;;;;;;;;;;;;12.24;42.77;102252.29;107457;1257;124657;-82
2023/05/06 09:39:05;;;;;;;;;;;;;;;12.25;42.55;102250.73;107423;1257;60677;-82
2023/05/06 09:41:34;;;;;;;;;;;;;;;12.25;42.48;102246.67;107527;1256;125034;-82
2023/05/06 09:44:03;;;;;;;;;;;;;;;12.20;42.44;102244.36;107520;1257;67074;-82
2023/05/06 09:46:30;;;;;;;;;;;;;;;12.19;42.87;102243.24;107446;1257;70262;-82
2023/05/06 09:48:57;;;;;;;;;;;;;;;12.27;42.80;102244.13;107441;1258;124453;-82
2023/05/06 09:51:24;;;;;;;;;;;;;;;12.22;42.80;102244.98;107831;1256;60737;-82
2023/05/06 09:53:53;;;;;;;;;;;;;;;12.10;42.48;102242.70;107527;1257;125182;-83
2023/05/06 09:56:20;;;;;;;;;;;;;;;12.01;42.91;102242.30;107535;1262;67556;-83
2023/05/06 09:58:48;;;;;;;;;;;;;;;12.07;43.01;102247.31;107610;1257;125034;-83
2023/05/06 10:01:15;;;;;;;;;;;;;;;12.07;42.77;102241.70;107755;1257;62000;-83
2023/05/06 10:03:42;;;;;;;;;;;;;;;12.15;42.95;102235.33;107871;1256;60292;-83
2023/05/06 10:06:10;;;;;;;;;;;;;;;12.24;43.00;102238.35;107457;1257;124716;-83
2023/05/06 10:08:37;;;;;;;;;;;;;;;12.13;42.62;102239.84;107575;1257;66882;-83
2023/05/06 10:11:05;;;;;;;;;;;;;;;12.03;42.87;102237.49;107494;1257;125197;-84
2023/05/06 10:13:32;;;;;;;;;;;;;;;12.02;42.85;102234.10;107640;1256;60181;-83
2023/05/06 10:15:59;;;;;;;;;;;;;;;12.00;42.77;102237.55;107885;1260;60281;-83
2023/05/06 10:18:27;;;;;;;;;;;;;;;11.92;42.62;102232.61;107828;1257;125277;-82
2023/05/06 10:20:55;;;;;;;;;;;;;;;11.99;42.85;102227.82;107535;1257;67493;-82
2023/05/06 10:23:25;;;;;;;;;;;;;;;12.09;42.72;102223.48;107332;1259;124562;-82
2023/05/06 10:25:55;;;;;;;;;;;;;;;12.12;42.78;102222.20;107636;1260;62590;-83
2023/05/06 10:28:22;;;;;;;;;;;;;;;12.14;42.56;102220.70;107810;1257;62027;-82
2023/05/06 10:30:52;;;;;;;;;;;;;;;12.01;42.41;102221.75;107186;1256;125024;-82
2023/05/06 10:33:21;;;;;;;;;;;;;;;11.93;42.41;102212.05;107234;1256;66447;-83
2023/05/06 10:35:53;;;;;;;;;;;;;;;12.00;42.47;102207.45;107176;1264;124476;-82
2023/05/06 10:38:53;;;;;;;;;;;;;;;12.07;42.57;102205.27;107411;1258;60778;-82
2023/05/06 10:41:21;;;;;;;;;;;;;;;11.96;42.32;102214.13;106807;1265;125039;-82
2023/05/06 10:43:55;;;;;;;;;;;;;;;11.88;42.54;102202.86;106711;1265;75220;-82
2023/05/06 10:46:23;;;;;;;;;;;;;;;12.03;42.88;102204.06;107006;1270;67059;-83
2023/05/06 10:49:03;;;;;;;;;;;;;;;12.16;43.03;102200.36;106872;1266;124737;-83
2023/05/06 10:51:30;;;;;;;;;;;;;;;12.33;42.55;102194.38;107015;1265;61752;-83
2023/05/06 10:54:04;;;;;;;;;;;;;;;12.30;42.30;102199.19;106962;1267;124780;-83
2023/05/06 10:56:34;;;;;;;;;;;;;;;12.25;42.06;102198.80;107187;1266;75293;-83
2023/05/06 10:59:04;;;;;;;;;;;;;;;12.23;42.09;102197.15;107158;1265;124992;-83
2023/05/06 11:01:31;;;;;;;;;;;;;;;12.34;42.31;102195.80;106995;1267;73315;-84
2023/05/06 11:04:06;;;;;;;;;;;;;;;12.41;42.30;102192.39;106629;1265;60592;-84
2023/05/06 11:06:39;;;;;;;;;;;;;;;12.53;42.06;102193.23;106941;1267;124733;-82
2023/05/06 11:09:16;;;;;;;;;;;;;;;12.41;41.83;102194.16;107135;1265;75972;-83
2023/05/06 11:11:53;;;;;;;;;;;;;;;12.38;41.82;102188.23;106930;1271;124503;-83
2023/05/06 11:14:38;;;;;;;;;;;;;;;12.48;41.84;102189.53;107024;1267;71233;-83
2023/05/06 11:17:06;;;;;;;;;;;;;;;12.46;41.36;102191.75;106810;1267;125251;-83
2023/05/06 11:19:34;;;;;;;;;;;;;;;12.39;41.40;102190.94;107390;1257;61366;-84
2023/05/06 11:22:01;;;;;;;;;;;;;;;12.34;41.23;102185.77;107503;1256;75635;-83
2023/05/06 11:24:31;;;;;;;;;;;;;;;12.39;41.38;102187.73;107502;1257;124912;-83
2023/05/06 11:26:58;;;;;;;;;;;;;;;12.57;41.21;102188.30;107484;1257;72700;-83
2023/05/06 11:29:26;;;;;;;;;;;;;;;12.66;41.27;102188.64;107198;1257;124977;-83
2023/05/06 11:31:54;;;;;;;;;;;;;;;12.59;41.09;102182.56;107528;1256;61819;-82
2023/05/06 11:34:22;;;;;;;;;;;;;;;12.62;41.26;102184.48;107615;1257;75317;-83
2023/05/06 11:36:51;;;;;;;;;;;;;;;12.63;41.28;102182.54;107440;1259;124505;-83
2023/05/06 11:39:18;;;;;;;;;;;;;;;12.59;41.17;102183.80;107736;1256;72402;-83
2023/05/06 11:41:51;;;;;;;;;;;;;;;12.51;41.10;102178.20;107538;1256;124471;-83
2023/05/06 11:44:44;;;;;;;;;;;;;;;12.49;41.26;102181.81;107754;1257;60773;-82
2023/05/06 11:47:11;;;;;;;;;;;;;;;12.40;41.15;102179.34;107618;1256;125030;-81
2023/05/06 11:49:41;;;;;;;;;;;;;;;12.39;41.38;102180.36;107701;1257;65880;-85
2023/05/06 11:52:09;;;;;;;;;;;;;;;12.48;41.43;102179.16;107611;1258;71844;-81
2023/05/06 11:54:40;;;;;;;;;;;;;;;12.45;41.21;102173.90;107687;1256;125307;-85
2023/05/06 11:57:11;;;;;;;;;;;;;;;12.43;41.20;102176.48;107547;1258;60145;-83
2023/05/06 11:59:38;;;;;;;;;;;;;;;12.51;40.97;102181.17;107297;1256;124709;-84
2023/05/06 12:02:11;;;;;;;;;;;;;;;12.51;41.10;102179.27;107441;1257;67490;-83
2023/05/06 12:04:42;;;;;;;;;;;;;;;12.59;40.92;102179.59;107723;1256;72496;-86
2023/05/06 12:07:15;;;;;;;;;;;;;;;12.65;40.89;102179.45;107578;1257;62037;-85
2023/05/06 12:09:43;;;;;;;;;;;;;;;12.65;40.73;102179.30;107472;1257;61309;-82
2023/05/06 12:12:10;;;;;;;;;;;;;;;12.66;40.82;102175.63;107235;1257;125097;-83
2023/05/06 12:14:39;;;;;;;;;;;;;;;12.76;40.96;102178.83;107840;1256;65496;-83
2023/05/06 12:17:12;;;;;;;;;;;;;;;12.84;40.41;102172.09;107450;1256;244448;-90
2023/05/06 12:19:40;;;;;;;;;;;;;;;12.82;40.17;102174.67;107393;1257;60806;-84
2023/05/06 12:22:14;;;;;;;;;;;;;;;12.88;40.10;102173.81;107303;1258;61963;-84
2023/05/06 12:24:47;;;;;;;;;;;;;;;12.89;39.80;102171.59;107377;1256;124633;-84
2023/05/06 12:27:33;;;;;;;;;;;;;;;12.95;39.81;102167.42;107456;1256;65597;-83
2023/05/06 12:30:03;;;;;;;;;;;;;;;13.11;39.71;102172.94;107184;1257;124520;-84
2023/05/06 12:32:33;;;;;;;;;;;;;;;13.21;39.41;102171.73;107358;1256;61144;-84
2023/05/06 12:35:04;;;;;;;;;;;;;;;13.26;39.44;102173.31;107723;1256;125149;-85
2023/05/06 12:37:31;;;;;;;;;;;;;;;13.34;39.13;102167.48;107976;1257;75205;-86
2023/05/06 12:39:58;;;;;;;;;;;;;;;13.26;38.66;102172.77;107927;1259;66694;-84